createdAt,value
2023-09-23T00:00:58.857Z,17.26
2023-09-23T00:03:27.373Z,17.25
2023-09-23T00:05:54.612Z,17.23
2023-09-23T00:08:21.707Z,17.15
2023-09-23T00:10:52.379Z,17.13
2023-09-23T00:13:22.203Z,17.17
2023-09-23T00:15:51.190Z,17.15
2023-09-23T00:18:18.940Z,17.11
2023-09-23T00:20:46.704Z,17.09
2023-09-23T00:23:14.583Z,17.13
2023-09-23T00:25:41.788Z,17.04
2023-09-23T00:28:12.204Z,17.03
2023-09-23T00:30:39.594Z,17.06
2023-09-23T00:33:09.044Z,17.05
2023-09-23T00:35:37.909Z,17.04
2023-09-23T00:38:08.680Z,17.02
2023-09-23T00:40:39.535Z,17.03
2023-09-23T00:43:14.566Z,17.00
2023-09-23T00:45:49.385Z,17.00
2023-09-23T00:48:23.147Z,16.94
2023-09-23T00:50:53.697Z,16.87
2023-09-23T00:53:23.645Z,16.90
2023-09-23T00:55:56.628Z,16.93
2023-09-23T00:58:26.372Z,16.84
2023-09-23T01:00:56.112Z,16.91
2023-09-23T01:03:25.346Z,16.84
2023-09-23T01:06:05.687Z,16.92
2023-09-23T01:08:34.648Z,16.80
2023-09-23T01:11:01.903Z,16.84
2023-09-23T01:13:31.498Z,16.85
2023-09-23T01:16:00.932Z,16.85
2023-09-23T01:18:30.061Z,16.82
2023-09-23T01:21:01.825Z,16.82
2023-09-23T01:23:29.197Z,16.73
2023-09-23T01:25:56.454Z,16.79
2023-09-23T01:28:24.041Z,16.77
2023-09-23T01:30:51.273Z,16.78
2023-09-23T01:33:18.623Z,16.70
2023-09-23T01:35:47.114Z,16.73
2023-09-23T01:38:16.886Z,16.71
2023-09-23T01:40:45.000Z,16.71
2023-09-23T01:43:13.058Z,16.69
2023-09-23T01:45:41.248Z,16.64
2023-09-23T01:48:09.516Z,16.63
2023-09-23T01:50:36.733Z,16.66
2023-09-23T01:53:04.543Z,16.67
2023-09-23T01:55:32.264Z,16.64
2023-09-23T01:57:59.734Z,16.61
2023-09-23T02:00:30.844Z,16.59
2023-09-23T02:02:59.040Z,16.57
2023-09-23T02:05:29.005Z,16.56
2023-09-23T02:07:56.744Z,16.52
2023-09-23T02:10:27.525Z,16.46
2023-09-23T02:12:56.630Z,16.45
2023-09-23T02:15:23.834Z,16.32
2023-09-23T02:17:51.524Z,16.34
2023-09-23T02:20:20.699Z,16.34
2023-09-23T02:22:55.181Z,16.32
2023-09-23T02:25:26.202Z,16.23
2023-09-23T02:27:56.359Z,16.16
2023-09-23T02:30:24.578Z,16.22
2023-09-23T02:32:51.939Z,16.22
2023-09-23T02:35:19.176Z,15.92
2023-09-23T02:37:47.840Z,16.21
2023-09-23T02:40:16.014Z,16.21
2023-09-23T02:42:45.854Z,16.18
2023-09-23T02:45:15.402Z,16.17
2023-09-23T02:47:45.556Z,16.15
2023-09-23T02:50:15.044Z,16.09
2023-09-23T02:52:46.227Z,16.12
2023-09-23T02:55:16.871Z,16.09
2023-09-23T02:57:51.948Z,15.91
2023-09-23T03:00:31.369Z,15.99
2023-09-23T03:03:00.177Z,15.99
2023-09-23T03:05:31.307Z,15.95
2023-09-23T03:08:01.422Z,15.94
2023-09-23T03:10:40.798Z,15.98
2023-09-23T03:13:09.159Z,15.95
2023-09-23T03:15:52.445Z,15.98
2023-09-23T03:18:29.766Z,15.92
2023-09-23T03:21:04.749Z,15.91
2023-09-23T03:23:31.871Z,15.86
2023-09-23T03:26:00.567Z,15.82
2023-09-23T03:28:27.833Z,15.89
2023-09-23T03:31:01.331Z,15.92
2023-09-23T03:33:28.618Z,15.90
2023-09-23T03:35:56.618Z,15.84
2023-09-23T03:38:24.128Z,15.84
2023-09-23T03:40:53.588Z,15.55
2023-09-23T03:43:22.608Z,15.84
2023-09-23T03:45:50.021Z,15.80
2023-09-23T03:48:17.203Z,15.85
2023-09-23T03:50:44.625Z,15.80
2023-09-23T03:53:13.099Z,15.74
2023-09-23T03:55:40.532Z,15.86
2023-09-23T03:58:07.902Z,15.86
2023-09-23T04:00:35.990Z,15.86
2023-09-23T04:03:03.283Z,15.88
2023-09-23T04:05:32.889Z,15.80
2023-09-23T04:08:00.153Z,15.85
2023-09-23T04:10:28.610Z,15.89
2023-09-23T04:12:56.746Z,15.95
2023-09-23T04:15:25.772Z,15.98
2023-09-23T04:17:53.544Z,15.99
2023-09-23T04:20:20.905Z,15.71
2023-09-23T04:22:48.154Z,16.04
2023-09-23T04:25:15.516Z,16.04
2023-09-23T04:27:42.691Z,16.08
2023-09-23T04:30:10.964Z,16.12
2023-09-23T04:32:40.525Z,16.08
2023-09-23T04:35:09.064Z,16.11
2023-09-23T04:37:39.916Z,16.23
2023-09-23T04:40:12.147Z,16.23
2023-09-23T04:42:44.181Z,16.24
2023-09-23T04:45:13.025Z,16.32
2023-09-23T04:47:41.475Z,16.03
2023-09-23T04:50:13.780Z,16.42
2023-09-23T04:52:42.534Z,16.48
2023-09-23T04:55:10.313Z,16.50
2023-09-23T04:57:37.674Z,16.54
2023-09-23T05:00:10.739Z,16.51
2023-09-23T05:02:40.943Z,16.60
2023-09-23T05:05:11.240Z,16.67
2023-09-23T05:07:39.266Z,16.70
2023-09-23T05:10:08.024Z,16.78
2023-09-23T05:12:35.487Z,16.81
2023-09-23T05:15:04.405Z,16.88
2023-09-23T05:17:32.705Z,16.94
2023-09-23T05:20:00.105Z,17.00
2023-09-23T05:22:27.306Z,17.04
2023-09-23T05:24:59.028Z,17.03
2023-09-23T05:27:26.623Z,17.20
2023-09-23T05:29:54.747Z,17.19
2023-09-23T05:32:22.075Z,17.32
2023-09-23T05:34:52.932Z,17.37
2023-09-23T05:37:20.543Z,17.41
2023-09-23T05:39:47.683Z,17.56
2023-09-23T05:42:24.414Z,17.64
2023-09-23T05:44:51.534Z,17.76
2023-09-23T05:47:18.660Z,17.91
2023-09-23T05:49:47.737Z,18.04
2023-09-23T05:52:16.213Z,18.14
2023-09-23T05:54:43.550Z,18.23
2023-09-23T05:57:10.955Z,18.33
2023-09-23T05:59:38.074Z,18.43
2023-09-23T06:02:09.956Z,18.53
2023-09-23T06:04:37.280Z,18.61
2023-09-23T06:07:05.978Z,18.78
2023-09-23T06:09:33.312Z,18.94
2023-09-23T06:12:00.486Z,19.05
2023-09-23T06:14:27.830Z,19.17
2023-09-23T06:16:55.220Z,19.43
2023-09-23T06:19:22.731Z,19.56
2023-09-23T06:21:50.123Z,19.89
2023-09-23T06:24:17.332Z,20.22
2023-09-23T06:26:44.490Z,20.64
2023-09-23T06:29:11.805Z,20.92
2023-09-23T06:31:38.933Z,21.19
2023-09-23T06:34:07.561Z,21.38
2023-09-23T06:36:35.111Z,21.49
2023-09-23T06:39:02.252Z,21.58
2023-09-23T06:41:29.423Z,21.71
2023-09-23T06:43:58.317Z,21.82
2023-09-23T06:46:25.577Z,22.00
2023-09-23T06:48:52.704Z,21.94
2023-09-23T06:51:19.800Z,22.29
2023-09-23T06:53:48.571Z,22.36
2023-09-23T06:56:16.287Z,22.37
2023-09-23T06:58:43.400Z,22.55
2023-09-23T07:01:10.509Z,22.75
2023-09-23T07:03:37.690Z,23.02
2023-09-23T07:06:04.946Z,23.33
2023-09-23T07:08:32.154Z,23.46
2023-09-23T07:10:59.355Z,23.97
2023-09-23T07:13:26.579Z,24.34
2023-09-23T07:15:53.728Z,24.71
2023-09-23T07:18:20.893Z,25.34
2023-09-23T07:20:48.041Z,26.11
2023-09-23T07:23:15.261Z,26.39
2023-09-23T07:25:43.679Z,26.39
2023-09-23T07:28:11.359Z,26.33
2023-09-23T07:30:39.514Z,26.16
2023-09-23T07:33:07.077Z,25.95
2023-09-23T07:35:34.801Z,25.85
2023-09-23T07:38:04.108Z,25.70
2023-09-23T07:40:32.187Z,25.49
2023-09-23T07:42:59.455Z,25.18
2023-09-23T07:45:26.966Z,25.25
2023-09-23T07:47:54.202Z,25.19
2023-09-23T07:50:22.147Z,25.28
2023-09-23T07:52:49.659Z,25.32
2023-09-23T07:55:17.063Z,25.28
2023-09-23T07:57:46.168Z,25.20
2023-09-23T08:00:13.650Z,25.19
2023-09-23T08:02:40.857Z,25.29
2023-09-23T08:05:08.467Z,25.35
2023-09-23T08:07:35.745Z,25.38
2023-09-23T08:10:05.171Z,25.41
2023-09-23T08:12:35.533Z,25.42
2023-09-23T08:15:03.130Z,25.30
2023-09-23T08:17:32.944Z,25.54
2023-09-23T08:20:00.791Z,25.63
2023-09-23T08:22:27.919Z,25.65
2023-09-23T08:24:55.075Z,25.73
2023-09-23T08:27:22.357Z,25.78
2023-09-23T08:29:51.043Z,25.82
2023-09-23T08:32:18.287Z,25.90
2023-09-23T08:34:45.757Z,25.97
2023-09-23T08:37:12.988Z,26.03
2023-09-23T08:39:40.339Z,25.98
2023-09-23T08:42:08.870Z,26.12
2023-09-23T08:44:36.546Z,26.13
2023-09-23T08:47:03.946Z,26.21
2023-09-23T08:49:31.948Z,26.19
2023-09-23T08:52:00.937Z,26.29
2023-09-23T08:54:30.306Z,26.26
2023-09-23T08:56:57.659Z,26.36
2023-09-23T08:59:28.118Z,26.44
2023-09-23T09:01:56.805Z,26.49
2023-09-23T09:04:25.561Z,26.52
2023-09-23T09:06:54.725Z,26.56
2023-09-23T09:09:22.086Z,26.52
2023-09-23T09:11:51.053Z,26.52
2023-09-23T09:14:18.964Z,26.57
2023-09-23T09:16:46.823Z,26.58
2023-09-23T09:19:14.204Z,26.55
2023-09-23T09:21:42.661Z,26.58
2023-09-23T09:24:12.585Z,26.51
2023-09-23T09:26:39.687Z,26.53
2023-09-23T09:29:07.007Z,26.52
2023-09-23T09:31:36.209Z,26.54
2023-09-23T09:34:12.714Z,26.53
2023-09-23T09:36:40.444Z,26.74
2023-09-23T09:39:09.930Z,26.60
2023-09-23T09:41:48.245Z,26.63
2023-09-23T09:44:22.496Z,26.58
2023-09-23T09:46:51.714Z,26.55
2023-09-23T09:49:19.089Z,26.51
2023-09-23T09:51:50.365Z,26.54
2023-09-23T09:54:26.781Z,26.61
2023-09-23T09:56:57.162Z,26.59
2023-09-23T09:59:27.881Z,26.59
2023-09-23T10:01:59.216Z,26.55
2023-09-23T10:04:35.114Z,26.61
2023-09-23T10:07:07.342Z,26.62
2023-09-23T10:09:37.651Z,26.63
2023-09-23T10:12:05.625Z,26.65
2023-09-23T10:14:33.029Z,26.67
2023-09-23T10:17:03.131Z,26.66
2023-09-23T10:19:34.520Z,26.72
2023-09-23T10:22:21.903Z,26.88
2023-09-23T10:25:02.808Z,26.99
2023-09-23T10:27:33.739Z,26.94
2023-09-23T10:30:03.542Z,26.91
2023-09-23T10:32:32.398Z,26.81
2023-09-23T10:35:00.400Z,26.76
2023-09-23T10:37:30.660Z,26.80
2023-09-23T10:40:18.799Z,26.77
2023-09-23T10:42:50.547Z,26.69
2023-09-23T10:45:23.742Z,26.63
2023-09-23T10:47:51.785Z,26.59
2023-09-23T10:50:18.939Z,26.57
2023-09-23T10:52:46.569Z,26.58
2023-09-23T10:55:14.060Z,26.63
2023-09-23T10:57:41.375Z,26.65
2023-09-23T11:00:21.752Z,26.73
2023-09-23T11:02:56.251Z,26.71
2023-09-23T11:05:24.462Z,26.64
2023-09-23T11:07:55.722Z,26.62
2023-09-23T11:10:24.315Z,26.62
2023-09-23T11:12:51.480Z,26.62
2023-09-23T11:15:19.033Z,26.69
2023-09-23T11:17:46.458Z,26.58
2023-09-23T11:20:14.750Z,26.60
2023-09-23T11:22:45.327Z,26.58
2023-09-23T11:25:13.539Z,26.70
2023-09-23T11:27:41.443Z,26.86
2023-09-23T11:30:09.344Z,26.97
2023-09-23T11:32:36.650Z,27.16
2023-09-23T11:35:04.182Z,27.21
2023-09-23T11:37:31.516Z,27.19
2023-09-23T11:39:58.812Z,27.14
2023-09-23T11:42:26.025Z,27.06
2023-09-23T11:44:54.008Z,26.92
2023-09-23T11:47:22.682Z,26.92
2023-09-23T11:49:50.282Z,26.88
2023-09-23T11:52:17.844Z,26.86
2023-09-23T11:54:45.558Z,26.76
2023-09-23T11:57:13.862Z,26.65
2023-09-23T11:59:41.553Z,26.72
2023-09-23T12:02:10.106Z,26.75
2023-09-23T12:04:37.785Z,26.64
2023-09-23T12:07:06.152Z,26.75
2023-09-23T12:09:36.946Z,26.68
2023-09-23T12:12:04.499Z,26.71
2023-09-23T12:14:31.764Z,26.70
2023-09-23T12:16:59.093Z,26.68
2023-09-23T12:19:26.176Z,26.65
2023-09-23T12:21:53.290Z,26.61
2023-09-23T12:24:20.329Z,26.56
2023-09-23T12:26:47.527Z,26.54
2023-09-23T12:29:14.729Z,26.27
2023-09-23T12:31:41.849Z,26.45
2023-09-23T12:34:08.967Z,26.45
2023-09-23T12:36:36.078Z,26.41
2023-09-23T12:39:03.646Z,26.36
2023-09-23T12:41:30.770Z,26.35
2023-09-23T12:43:58.480Z,26.32
2023-09-23T12:46:25.708Z,26.29
2023-09-23T12:48:52.816Z,26.23
2023-09-23T12:51:20.934Z,26.22
2023-09-23T12:53:49.371Z,26.17
2023-09-23T12:56:18.718Z,26.11
2023-09-23T12:58:46.406Z,26.08
2023-09-23T13:01:14.212Z,26.02
2023-09-23T13:03:41.879Z,25.98
2023-09-23T13:06:09.189Z,25.89
2023-09-23T13:08:36.371Z,25.93
2023-09-23T13:11:03.752Z,25.84
2023-09-23T13:13:31.113Z,25.76
2023-09-23T13:15:58.298Z,25.75
2023-09-23T13:18:25.593Z,25.61
2023-09-23T13:20:52.837Z,25.74
2023-09-23T13:23:19.931Z,25.73
2023-09-23T13:25:47.563Z,25.69
2023-09-23T13:28:15.202Z,25.65
2023-09-23T13:30:42.340Z,25.64
2023-09-23T13:33:10.400Z,25.63
2023-09-23T13:35:38.020Z,25.56
2023-09-23T13:38:08.139Z,25.56
2023-09-23T13:40:37.064Z,25.54
2023-09-23T13:43:04.424Z,25.52
2023-09-23T13:45:31.637Z,25.48
2023-09-23T13:47:59.161Z,25.40
2023-09-23T13:50:27.348Z,25.32
2023-09-23T13:52:54.585Z,25.29
2023-09-23T13:55:21.680Z,25.28
2023-09-23T13:57:49.000Z,25.26
2023-09-23T14:00:16.269Z,25.25
2023-09-23T14:02:43.682Z,25.23
2023-09-23T14:05:12.308Z,25.16
2023-09-23T14:07:39.890Z,25.08
2023-09-23T14:10:19.279Z,25.14
2023-09-23T14:12:49.348Z,25.05
2023-09-23T14:15:17.245Z,25.04
2023-09-23T14:17:44.611Z,25.02
2023-09-23T14:20:14.029Z,24.99
2023-09-23T14:22:46.707Z,24.95
2023-09-23T14:25:15.499Z,24.91
2023-09-23T14:27:44.248Z,24.85
2023-09-23T14:30:12.267Z,24.82
2023-09-23T14:32:39.966Z,24.78
2023-09-23T14:35:07.759Z,24.73
2023-09-23T14:37:35.468Z,24.71
2023-09-23T14:40:03.450Z,24.69
2023-09-23T14:42:32.207Z,24.51
2023-09-23T14:44:59.422Z,24.63
2023-09-23T14:47:27.561Z,24.61
2023-09-23T14:49:54.840Z,24.55
2023-09-23T14:52:22.270Z,24.51
2023-09-23T14:54:49.449Z,24.44
2023-09-23T14:57:16.981Z,24.45
2023-09-23T14:59:45.409Z,24.32
2023-09-23T15:02:12.743Z,24.30
2023-09-23T15:04:39.950Z,23.96
2023-09-23T15:07:07.061Z,24.16
2023-09-23T15:09:34.244Z,24.04
2023-09-23T15:12:01.397Z,23.96
2023-09-23T15:14:28.720Z,23.88
2023-09-23T15:16:56.034Z,23.75
2023-09-23T15:19:23.360Z,23.66
2023-09-23T15:21:50.419Z,23.61
2023-09-23T15:24:18.251Z,23.35
2023-09-23T15:26:46.178Z,23.41
2023-09-23T15:29:13.421Z,23.33
2023-09-23T15:31:40.481Z,23.28
2023-09-23T15:34:08.153Z,23.16
2023-09-23T15:36:36.721Z,23.10
2023-09-23T15:39:05.502Z,23.09
2023-09-23T15:41:32.904Z,22.99
2023-09-23T15:44:00.152Z,22.95
2023-09-23T15:46:27.373Z,22.85
2023-09-23T15:48:54.577Z,22.77
2023-09-23T15:51:21.809Z,22.47
2023-09-23T15:53:49.142Z,22.45
2023-09-23T15:56:16.576Z,22.60
2023-09-23T15:58:45.302Z,22.53
2023-09-23T16:01:12.916Z,22.38
2023-09-23T16:03:40.359Z,22.37
2023-09-23T16:06:07.680Z,22.29
2023-09-23T16:08:34.980Z,22.22
2023-09-23T16:11:05.546Z,22.11
2023-09-23T16:13:33.601Z,22.00
2023-09-23T16:16:00.834Z,21.95
2023-09-23T16:18:28.108Z,21.76
2023-09-23T16:20:55.364Z,21.78
2023-09-23T16:23:22.592Z,21.74
2023-09-23T16:25:50.460Z,21.78
2023-09-23T16:28:17.692Z,21.75
2023-09-23T16:30:46.355Z,21.73
2023-09-23T16:33:13.948Z,21.69
2023-09-23T16:35:41.374Z,21.52
2023-09-23T16:38:08.627Z,21.57
2023-09-23T16:40:37.277Z,21.46
2023-09-23T16:43:05.055Z,21.45
2023-09-23T16:45:32.423Z,21.41
2023-09-23T16:47:59.654Z,21.37
2023-09-23T16:50:27.284Z,21.28
2023-09-23T16:52:54.533Z,21.29
2023-09-23T16:55:21.952Z,21.26
2023-09-23T16:57:49.283Z,21.25
2023-09-23T17:00:18.284Z,20.93
2023-09-23T17:02:46.037Z,21.08
2023-09-23T17:05:14.138Z,20.98
2023-09-23T17:07:41.342Z,21.07
2023-09-23T17:10:09.691Z,21.03
2023-09-23T17:12:37.046Z,20.96
2023-09-23T17:15:05.282Z,20.99
2023-09-23T17:17:33.211Z,20.97
2023-09-23T17:20:00.963Z,20.85
2023-09-23T17:22:28.687Z,20.85
2023-09-23T17:24:55.842Z,20.79
2023-09-23T17:27:23.059Z,20.84
2023-09-23T17:29:50.223Z,20.85
2023-09-23T17:32:17.402Z,20.85
2023-09-23T17:34:44.612Z,20.67
2023-09-23T17:37:14.455Z,20.77
2023-09-23T17:39:41.607Z,20.74
2023-09-23T17:42:08.812Z,20.73
2023-09-23T17:44:38.041Z,20.68
2023-09-23T17:47:05.971Z,20.67
2023-09-23T17:49:33.099Z,20.64
2023-09-23T17:52:00.185Z,20.56
2023-09-23T17:54:27.435Z,20.51
2023-09-23T17:56:54.577Z,20.58
2023-09-23T17:59:22.349Z,20.54
2023-09-23T18:01:49.707Z,20.44
2023-09-23T18:04:17.331Z,20.50
2023-09-23T18:06:44.733Z,20.48
2023-09-23T18:09:11.945Z,20.48
2023-09-23T18:11:39.211Z,20.47
2023-09-23T18:14:06.533Z,20.48
2023-09-23T18:16:33.835Z,20.45
2023-09-23T18:19:00.999Z,20.43
2023-09-23T18:21:28.222Z,20.32
2023-09-23T18:23:55.440Z,20.34
2023-09-23T18:26:22.690Z,20.35
2023-09-23T18:28:49.887Z,20.37
2023-09-23T18:31:17.112Z,20.39
2023-09-23T18:33:44.498Z,20.36
2023-09-23T18:36:12.378Z,20.34
2023-09-23T18:38:39.738Z,20.32
2023-09-23T18:41:07.252Z,20.27
2023-09-23T18:43:34.368Z,20.30
2023-09-23T18:46:01.581Z,20.27
2023-09-23T18:48:31.756Z,20.25
2023-09-23T18:51:00.371Z,20.14
2023-09-23T18:53:28.056Z,20.11
2023-09-23T18:55:55.826Z,20.19
2023-09-23T18:58:23.133Z,20.15
2023-09-23T19:00:50.388Z,19.90
2023-09-23T19:03:18.749Z,20.13
2023-09-23T19:05:47.565Z,20.10
2023-09-23T19:08:15.535Z,20.09
2023-09-23T19:10:42.947Z,20.05
2023-09-23T19:13:10.315Z,20.00
2023-09-23T19:15:37.629Z,20.01
2023-09-23T19:18:05.105Z,19.98
2023-09-23T19:20:32.976Z,19.78
2023-09-23T19:23:00.232Z,19.92
2023-09-23T19:25:27.333Z,19.91
2023-09-23T19:27:54.458Z,19.89
2023-09-23T19:30:21.749Z,19.89
2023-09-23T19:32:50.985Z,19.82
2023-09-23T19:35:18.774Z,19.79
2023-09-23T19:37:46.346Z,19.70
2023-09-23T19:40:13.604Z,19.67
2023-09-23T19:42:40.717Z,19.63
2023-09-23T19:45:09.821Z,19.70
2023-09-23T19:47:38.281Z,19.43
2023-09-23T19:50:07.549Z,19.69
2023-09-23T19:52:35.464Z,19.55
2023-09-23T19:55:03.062Z,19.67
2023-09-23T19:57:32.450Z,19.62
2023-09-23T20:00:00.615Z,19.61
2023-09-23T20:02:28.248Z,19.61
2023-09-23T20:04:56.171Z,19.59
2023-09-23T20:07:24.904Z,19.55
2023-09-23T20:09:52.090Z,19.47
2023-09-23T20:12:19.188Z,19.47
2023-09-23T20:14:46.451Z,19.47
2023-09-23T20:17:13.654Z,19.28
2023-09-23T20:19:40.813Z,19.44
2023-09-23T20:22:07.950Z,19.51
2023-09-23T20:24:35.196Z,19.45
2023-09-23T20:27:05.029Z,19.46
2023-09-23T20:29:32.161Z,19.43
2023-09-23T20:31:59.256Z,19.43
2023-09-23T20:34:26.398Z,19.46
2023-09-23T20:36:57.260Z,19.50
2023-09-23T20:39:24.840Z,19.50
2023-09-23T20:41:53.849Z,19.52
2023-09-23T20:44:21.231Z,19.67
2023-09-23T20:46:48.382Z,19.75
2023-09-23T20:49:15.569Z,19.82
2023-09-23T20:51:42.798Z,19.90
2023-09-23T20:54:10.037Z,19.97
2023-09-23T20:56:37.164Z,19.98
2023-09-23T20:59:04.305Z,20.03
2023-09-23T21:01:31.473Z,19.77
2023-09-23T21:03:58.782Z,20.07
2023-09-23T21:06:26.039Z,19.91
2023-09-23T21:08:53.300Z,20.10
2023-09-23T21:11:20.595Z,20.08
2023-09-23T21:13:48.137Z,20.14
2023-09-23T21:16:16.256Z,20.07
2023-09-23T21:18:43.645Z,20.10
2023-09-23T21:21:10.942Z,20.08
2023-09-23T21:23:39.257Z,20.05
2023-09-23T21:26:07.383Z,20.07
2023-09-23T21:28:34.518Z,19.83
2023-09-23T21:31:01.582Z,20.08
2023-09-23T21:33:28.906Z,20.07
2023-09-23T21:35:56.329Z,20.05
2023-09-23T21:38:23.583Z,20.08
2023-09-23T21:40:50.707Z,19.98
2023-09-23T21:43:18.007Z,20.05
2023-09-23T21:45:45.342Z,20.10
2023-09-23T21:48:12.601Z,20.09
2023-09-23T21:50:39.848Z,20.09
2023-09-23T21:53:07.003Z,20.10
2023-09-23T21:55:34.127Z,20.00
2023-09-23T21:58:01.251Z,19.46
2023-09-23T22:00:29.230Z,20.04
2023-09-23T22:02:58.521Z,19.98
2023-09-23T22:05:27.337Z,20.03
2023-09-23T22:08:01.986Z,20.10
2023-09-23T22:10:29.643Z,19.98
2023-09-23T22:12:58.278Z,20.02
2023-09-23T22:15:26.971Z,20.07
2023-09-23T22:17:54.944Z,20.08
2023-09-23T22:20:26.137Z,20.07
2023-09-23T22:22:54.887Z,20.09
2023-09-23T22:25:23.471Z,20.10
2023-09-23T22:27:55.347Z,19.99
2023-09-23T22:30:27.394Z,20.03
2023-09-23T22:32:58.994Z,20.03
2023-09-23T22:35:31.089Z,20.06
2023-09-23T22:38:00.507Z,20.05
2023-09-23T22:40:27.901Z,20.02
2023-09-23T22:42:59.855Z,20.03
2023-09-23T22:45:38.516Z,20.03
2023-09-23T22:48:08.780Z,19.99
2023-09-23T22:50:36.543Z,20.05
2023-09-23T22:53:06.514Z,20.01
2023-09-23T22:55:34.137Z,20.01
2023-09-23T22:58:01.262Z,19.92
2023-09-23T23:00:28.785Z,19.76
2023-09-23T23:02:57.881Z,19.72
2023-09-23T23:05:28.211Z,20.01
2023-09-23T23:07:57.471Z,20.02
2023-09-23T23:10:25.003Z,19.91
2023-09-23T23:12:52.272Z,19.97
2023-09-23T23:15:19.712Z,19.97
2023-09-23T23:17:48.486Z,19.95
2023-09-23T23:20:24.284Z,19.94
2023-09-23T23:22:56.329Z,19.81
2023-09-23T23:25:25.174Z,19.91
2023-09-23T23:27:53.270Z,19.92
2023-09-23T23:30:21.922Z,19.85
2023-09-23T23:32:49.957Z,19.76
2023-09-23T23:35:24.386Z,19.72
2023-09-23T23:37:52.400Z,19.66
2023-09-23T23:40:24.616Z,19.62
2023-09-23T23:42:52.228Z,19.51
2023-09-23T23:45:22.972Z,19.48
2023-09-23T23:47:56.721Z,19.52
2023-09-23T23:50:25.223Z,19.47
2023-09-23T23:52:52.989Z,19.45
2023-09-23T23:55:20.374Z,19.37
2023-09-23T23:57:48.525Z,19.28
